sensor_id;sensor_type;location;lat;lon;timestamp;pressure;altitude;pressure_sealevel;temperature;humidity
50349;BME280;36250;48.740;22.174;2023-07-13T00:01:57;100285.25;;;20.08;81.85
50349;BME280;36250;48.740;22.174;2023-07-13T00:04:23;100293.66;;;20.03;81.99
50349;BME280;36250;48.740;22.174;2023-07-13T00:06:50;100289.59;;;19.87;81.54
50349;BME280;36250;48.740;22.174;2023-07-13T00:09:16;100285.94;;;19.78;81.93
50349;BME280;36250;48.740;22.174;2023-07-13T00:11:42;100276.50;;;19.79;81.76
50349;BME280;36250;48.740;22.174;2023-07-13T00:14:07;100270.16;;;19.79;81.81
50349;BME280;36250;48.740;22.174;2023-07-13T00:16:34;100274.06;;;19.78;81.57
50349;BME280;36250;48.740;22.174;2023-07-13T00:18:59;100274.88;;;19.78;81.23
50349;BME280;36250;48.740;22.174;2023-07-13T00:21:25;100290.91;;;19.76;81.22
50349;BME280;36250;48.740;22.174;2023-07-13T00:23:50;100279.97;;;19.71;81.09
50349;BME280;36250;48.740;22.174;2023-07-13T00:26:16;100268.44;;;19.69;81.35
50349;BME280;36250;48.740;22.174;2023-07-13T00:28:42;100272.00;;;19.70;81.41
50349;BME280;36250;48.740;22.174;2023-07-13T00:31:08;100267.09;;;19.66;81.66
50349;BME280;36250;48.740;22.174;2023-07-13T00:33:34;100271.63;;;19.62;81.76
50349;BME280;36250;48.740;22.174;2023-07-13T00:35:59;100269.03;;;19.66;81.63
50349;BME280;36250;48.740;22.174;2023-07-13T00:38:24;100270.69;;;19.67;81.65
50349;BME280;36250;48.740;22.174;2023-07-13T00:40:49;100272.84;;;19.56;82.07
50349;BME280;36250;48.740;22.174;2023-07-13T00:43:19;100291.66;;;19.41;82.95
50349;BME280;36250;48.740;22.174;2023-07-13T00:48:11;100292.66;;;19.31;84.10
50349;BME280;36250;48.740;22.174;2023-07-13T00:50:36;100298.06;;;19.23;84.79
50349;BME280;36250;48.740;22.174;2023-07-13T00:53:02;100286.50;;;19.21;85.03
50349;BME280;36250;48.740;22.174;2023-07-13T00:55:28;100299.38;;;19.25;84.92
50349;BME280;36250;48.740;22.174;2023-07-13T00:57:53;100294.91;;;19.29;84.82
50349;BME280;36250;48.740;22.174;2023-07-13T01:00:19;100294.69;;;19.26;84.85
50349;BME280;36250;48.740;22.174;2023-07-13T01:02:45;100291.63;;;19.27;84.23
50349;BME280;36250;48.740;22.174;2023-07-13T01:05:12;100289.16;;;19.26;83.94
50349;BME280;36250;48.740;22.174;2023-07-13T01:07:39;100287.00;;;19.23;83.87
50349;BME280;36250;48.740;22.174;2023-07-13T01:10:05;100288.75;;;19.19;83.76
50349;BME280;36250;48.740;22.174;2023-07-13T01:12:30;100281.41;;;19.14;83.99
50349;BME280;36250;48.740;22.174;2023-07-13T01:15:00;100276.78;;;19.10;84.39
50349;BME280;36250;48.740;22.174;2023-07-13T01:17:25;100270.97;;;19.11;84.69
50349;BME280;36250;48.740;22.174;2023-07-13T01:19:51;100258.50;;;19.14;84.02
50349;BME280;36250;48.740;22.174;2023-07-13T01:22:17;100262.59;;;19.16;84.59
50349;BME280;36250;48.740;22.174;2023-07-13T01:24:43;100254.00;;;19.18;84.74
50349;BME280;36250;48.740;22.174;2023-07-13T01:27:10;100252.38;;;19.17;85.26
50349;BME280;36250;48.740;22.174;2023-07-13T01:29:36;100256.75;;;19.18;85.32
50349;BME280;36250;48.740;22.174;2023-07-13T01:32:07;100251.75;;;19.20;85.22
50349;BME280;36250;48.740;22.174;2023-07-13T01:34:33;100254.00;;;19.18;85.47
50349;BME280;36250;48.740;22.174;2023-07-13T01:36:58;100251.75;;;19.20;85.46
50349;BME280;36250;48.740;22.174;2023-07-13T01:39:24;100248.38;;;19.23;85.34
50349;BME280;36250;48.740;22.174;2023-07-13T01:41:49;100249.41;;;19.27;85.05
50349;BME280;36250;48.740;22.174;2023-07-13T01:44:14;100249.91;;;19.29;84.93
50349;BME280;36250;48.740;22.174;2023-07-13T01:46:39;100254.81;;;19.32;84.66
50349;BME280;36250;48.740;22.174;2023-07-13T01:49:05;100258.72;;;19.31;84.66
50349;BME280;36250;48.740;22.174;2023-07-13T01:51:30;100258.72;;;19.31;84.90
50349;BME280;36250;48.740;22.174;2023-07-13T01:53:55;100267.00;;;19.31;84.83
50349;BME280;36250;48.740;22.174;2023-07-13T01:56:21;100259.16;;;19.38;84.59
50349;BME280;36250;48.740;22.174;2023-07-13T01:58:46;100259.16;;;19.38;84.12
50349;BME280;36250;48.740;22.174;2023-07-13T02:01:12;100272.41;;;19.36;84.20
50349;BME280;36250;48.740;22.174;2023-07-13T02:03:37;100287.56;;;19.38;84.08
50349;BME280;36250;48.740;22.174;2023-07-13T02:06:02;100283.69;;;19.39;83.91
50349;BME280;36250;48.740;22.174;2023-07-13T02:08:28;100291.97;;;19.39;83.73
50349;BME280;36250;48.740;22.174;2023-07-13T02:10:53;100294.72;;;19.39;83.77
50349;BME280;36250;48.740;22.174;2023-07-13T02:13:18;100293.91;;;19.39;83.39
50349;BME280;36250;48.740;22.174;2023-07-13T02:15:43;100291.22;;;19.34;83.32
50349;BME280;36250;48.740;22.174;2023-07-13T02:18:09;100292.25;;;19.24;83.76
50349;BME280;36250;48.740;22.174;2023-07-13T02:20:34;100294.69;;;19.26;83.99
50349;BME280;36250;48.740;22.174;2023-07-13T02:22:59;100295.50;;;19.26;84.10
50349;BME280;36250;48.740;22.174;2023-07-13T02:25:24;100291.84;;;19.31;83.75
50349;BME280;36250;48.740;22.174;2023-07-13T02:27:51;100287.44;;;19.30;83.75
50349;BME280;36250;48.740;22.174;2023-07-13T02:30:17;100284.16;;;19.28;83.61
50349;BME280;36250;48.740;22.174;2023-07-13T02:32:42;100275.59;;;19.29;83.79
50349;BME280;36250;48.740;22.174;2023-07-13T02:35:08;100263.72;;;19.29;84.13
50349;BME280;36250;48.740;22.174;2023-07-13T02:37:34;100265.84;;;19.32;83.70
50349;BME280;36250;48.740;22.174;2023-07-13T02:39:59;100274.25;;;19.27;83.80
50349;BME280;36250;48.740;22.174;2023-07-13T02:42:24;100267.19;;;19.21;84.33
50349;BME280;36250;48.740;22.174;2023-07-13T02:44:49;100273.72;;;19.25;84.27
50349;BME280;36250;48.740;22.174;2023-07-13T02:47:15;100283.03;;;19.29;84.25
50349;BME280;36250;48.740;22.174;2023-07-13T02:49:41;100282.94;;;19.34;83.97
50349;BME280;36250;48.740;22.174;2023-07-13T02:52:06;100277.34;;;19.39;83.76
50349;BME280;36250;48.740;22.174;2023-07-13T02:54:32;100266.31;;;19.39;83.47
50349;BME280;36250;48.740;22.174;2023-07-13T02:56:57;100262.22;;;19.36;83.59
50349;BME280;36250;48.740;22.174;2023-07-13T02:59:22;100264.06;;;19.41;83.58
50349;BME280;36250;48.740;22.174;2023-07-13T03:01:47;100269.78;;;19.44;83.18
50349;BME280;36250;48.740;22.174;2023-07-13T03:04:13;100273.69;;;19.43;83.25
50349;BME280;36250;48.740;22.174;2023-07-13T03:06:38;100264.47;;;19.48;83.54
50349;BME280;36250;48.740;22.174;2023-07-13T03:09:03;100267.31;;;19.56;83.24
50349;BME280;36250;48.740;22.174;2023-07-13T03:11:28;100273.56;;;19.62;83.08
50349;BME280;36250;48.740;22.174;2023-07-13T03:13:54;100283.38;;;19.68;83.08
50349;BME280;36250;48.740;22.174;2023-07-13T03:16:20;100275.50;;;19.75;82.65
50349;BME280;36250;48.740;22.174;2023-07-13T03:18:45;100279.06;;;19.76;82.07
50349;BME280;36250;48.740;22.174;2023-07-13T03:21:11;100292.34;;;19.74;82.24
50349;BME280;36250;48.740;22.174;2023-07-13T03:23:36;100283.28;;;19.73;82.52
50349;BME280;36250;48.740;22.174;2023-07-13T03:26:09;100286.53;;;19.75;82.70
50349;BME280;36250;48.740;22.174;2023-07-13T03:28:34;100291.47;;;19.78;82.93
50349;BME280;36250;48.740;22.174;2023-07-13T03:31:04;100294.09;;;19.83;83.45
50349;BME280;36250;48.740;22.174;2023-07-13T03:33:29;100294.72;;;19.80;83.34
50349;BME280;36250;48.740;22.174;2023-07-13T03:35:55;100292.88;;;19.76;83.39
50349;BME280;36250;48.740;22.174;2023-07-13T03:38:20;100289.59;;;19.74;83.63
50349;BME280;36250;48.740;22.174;2023-07-13T03:40:46;100281.84;;;19.76;84.00
50349;BME280;36250;48.740;22.174;2023-07-13T03:43:11;100282.03;;;19.79;83.97
50349;BME280;36250;48.740;22.174;2023-07-13T03:45:39;100285.09;;;19.78;84.05
50349;BME280;36250;48.740;22.174;2023-07-13T03:48:04;100274.88;;;19.78;83.85
50349;BME280;36250;48.740;22.174;2023-07-13T03:50:30;100273.84;;;19.74;84.11
50349;BME280;36250;48.740;22.174;2023-07-13T03:52:55;100274.56;;;19.80;84.38
50349;BME280;36250;48.740;22.174;2023-07-13T03:55:21;100275.16;;;19.90;84.31
50349;BME280;36250;48.740;22.174;2023-07-13T03:57:46;100279.13;;;19.98;83.96
50349;BME280;36250;48.740;22.174;2023-07-13T04:00:11;100265.78;;;20.13;83.91
50349;BME280;36250;48.740;22.174;2023-07-13T04:02:37;100265.97;;;20.30;83.72
50349;BME280;36250;48.740;22.174;2023-07-13T04:05:02;100258.13;;;20.46;83.09
50349;BME280;36250;48.740;22.174;2023-07-13T04:07:27;100253.34;;;20.60;82.97
50349;BME280;36250;48.740;22.174;2023-07-13T04:09:53;100263.94;;;20.67;82.57
50349;BME280;36250;48.740;22.174;2023-07-13T04:12:18;100270.03;;;20.77;82.42
50349;BME280;36250;48.740;22.174;2023-07-13T04:14:43;100258.75;;;20.96;82.23
50349;BME280;36250;48.740;22.174;2023-07-13T04:17:08;100249.56;;;21.09;81.37
50349;BME280;36250;48.740;22.174;2023-07-13T04:19:34;100256.44;;;21.20;81.39
50349;BME280;36250;48.740;22.174;2023-07-13T04:21:59;100265.94;;;21.28;80.89
50349;BME280;36250;48.740;22.174;2023-07-13T04:24:24;100278.16;;;21.27;80.64
50349;BME280;36250;48.740;22.174;2023-07-13T04:26:49;100289.75;;;21.37;80.84
50349;BME280;36250;48.740;22.174;2023-07-13T04:29:14;100289.34;;;21.52;79.98
50349;BME280;36250;48.740;22.174;2023-07-13T04:31:40;100283.00;;;21.60;79.58
50349;BME280;36250;48.740;22.174;2023-07-13T04:34:05;100294.78;;;21.75;79.16
50349;BME280;36250;48.740;22.174;2023-07-13T04:36:30;100287.03;;;21.85;78.41
50349;BME280;36250;48.740;22.174;2023-07-13T04:38:56;100299.28;;;21.93;78.48
50349;BME280;36250;48.740;22.174;2023-07-13T04:41:21;100293.09;;;22.04;78.45
50349;BME280;36250;48.740;22.174;2023-07-13T04:43:47;100293.59;;;22.15;78.85
50349;BME280;36250;48.740;22.174;2023-07-13T04:46:14;100297.53;;;22.22;78.60
50349;BME280;36250;48.740;22.174;2023-07-13T04:48:40;100305.69;;;22.28;77.90
50349;BME280;36250;48.740;22.174;2023-07-13T04:51:06;100293.63;;;22.32;77.52
50349;BME280;36250;48.740;22.174;2023-07-13T04:53:32;100277.13;;;22.36;77.53
50349;BME280;36250;48.740;22.174;2023-07-13T04:55:58;100276.13;;;22.40;78.11
50349;BME280;36250;48.740;22.174;2023-07-13T04:58:24;100271.59;;;22.44;77.79
50349;BME280;36250;48.740;22.174;2023-07-13T05:00:49;100264.72;;;22.42;78.13
50349;BME280;36250;48.740;22.174;2023-07-13T05:03:15;100272.38;;;22.36;78.13
50349;BME280;36250;48.740;22.174;2023-07-13T05:05:40;100268.66;;;22.32;78.15
50349;BME280;36250;48.740;22.174;2023-07-13T05:08:05;100271.41;;;22.32;78.31
50349;BME280;36250;48.740;22.174;2023-07-13T05:10:32;100269.13;;;22.34;78.83
50349;BME280;36250;48.740;22.174;2023-07-13T05:12:57;100272.06;;;22.46;78.89
50349;BME280;36250;48.740;22.174;2023-07-13T05:15:22;100268.47;;;22.63;78.61
50349;BME280;36250;48.740;22.174;2023-07-13T05:17:48;100257.38;;;22.71;78.85
50349;BME280;36250;48.740;22.174;2023-07-13T05:20:14;100265.34;;;22.81;78.63
50349;BME280;36250;48.740;22.174;2023-07-13T05:22:39;100259.25;;;22.97;78.13
50349;BME280;36250;48.740;22.174;2023-07-13T05:25:05;100255.47;;;23.10;77.92
50349;BME280;36250;48.740;22.174;2023-07-13T05:27:31;100254.78;;;23.21;77.57
50349;BME280;36250;48.740;22.174;2023-07-13T05:29:56;100263.59;;;23.23;77.37
50349;BME280;36250;48.740;22.174;2023-07-13T05:32:21;100268.28;;;23.31;77.34
50349;BME280;36250;48.740;22.174;2023-07-13T05:34:46;100270.41;;;23.34;77.01
50349;BME280;36250;48.740;22.174;2023-07-13T05:37:11;100269.44;;;23.39;76.21
50349;BME280;36250;48.740;22.174;2023-07-13T05:39:37;100276.13;;;23.46;74.79
50349;BME280;36250;48.740;22.174;2023-07-13T05:42:02;100275.75;;;23.48;73.97
50349;BME280;36250;48.740;22.174;2023-07-13T05:44:28;100271.03;;;23.48;74.42
50349;BME280;36250;48.740;22.174;2023-07-13T05:46:53;100261.88;;;23.48;73.86
50349;BME280;36250;48.740;22.174;2023-07-13T05:49:20;100272.38;;;23.42;73.81
50349;BME280;36250;48.740;22.174;2023-07-13T05:51:45;100269.59;;;23.42;74.25
50349;BME280;36250;48.740;22.174;2023-07-13T05:54:10;100280.00;;;23.54;74.30
50349;BME280;36250;48.740;22.174;2023-07-13T05:56:35;100280.47;;;23.56;73.97
50349;BME280;36250;48.740;22.174;2023-07-13T05:59:01;100265.25;;;23.62;73.45
50349;BME280;36250;48.740;22.174;2023-07-13T06:01:26;100268.13;;;23.74;73.26
50349;BME280;36250;48.740;22.174;2023-07-13T06:03:51;100274.06;;;23.93;73.43
50349;BME280;36250;48.740;22.174;2023-07-13T06:06:17;100275.44;;;24.08;72.85
50349;BME280;36250;48.740;22.174;2023-07-13T06:08:42;100275.78;;;24.27;71.72
50349;BME280;36250;48.740;22.174;2023-07-13T06:11:10;100285.50;;;24.42;71.30
50349;BME280;36250;48.740;22.174;2023-07-13T06:13:37;100299.31;;;24.50;70.84
50349;BME280;36250;48.740;22.174;2023-07-13T06:16:03;100309.47;;;24.55;70.08
50349;BME280;36250;48.740;22.174;2023-07-13T06:18:32;100317.38;;;24.65;70.22
50349;BME280;36250;48.740;22.174;2023-07-13T06:20:58;100324.09;;;24.64;69.58
50349;BME280;36250;48.740;22.174;2023-07-13T06:23:25;100319.16;;;24.49;70.16
50349;BME280;36250;48.740;22.174;2023-07-13T06:25:50;100311.94;;;24.48;69.93
50349;BME280;36250;48.740;22.174;2023-07-13T06:28:15;100313.91;;;24.68;70.08
50349;BME280;36250;48.740;22.174;2023-07-13T06:30:41;100314.59;;;24.86;69.68
50349;BME280;36250;48.740;22.174;2023-07-13T06:33:06;100305.56;;;24.89;69.56
50349;BME280;36250;48.740;22.174;2023-07-13T06:35:31;100317.06;;;24.99;69.09
50349;BME280;36250;48.740;22.174;2023-07-13T06:37:56;100313.78;;;24.85;69.23
50349;BME280;36250;48.740;22.174;2023-07-13T06:40:21;100302.09;;;24.71;70.13
50349;BME280;36250;48.740;22.174;2023-07-13T06:42:47;100297.22;;;24.68;70.28
50349;BME280;36250;48.740;22.174;2023-07-13T06:45:12;100286.19;;;24.92;70.15
50349;BME280;36250;48.740;22.174;2023-07-13T06:47:37;100276.03;;;25.08;69.52
50349;BME280;36250;48.740;22.174;2023-07-13T06:50:02;100280.13;;;25.35;69.13
50349;BME280;36250;48.740;22.174;2023-07-13T06:52:28;100280.78;;;25.53;67.65
50349;BME280;36250;48.740;22.174;2023-07-13T06:54:53;100273.78;;;25.71;67.33
50349;BME280;36250;48.740;22.174;2023-07-13T06:57:18;100268.66;;;25.85;67.15
50349;BME280;36250;48.740;22.174;2023-07-13T06:59:43;100270.03;;;26.03;66.63
50349;BME280;36250;48.740;22.174;2023-07-13T07:02:10;100270.69;;;26.24;65.38
50349;BME280;36250;48.740;22.174;2023-07-13T07:04:35;100262.03;;;26.41;63.96
50349;BME280;36250;48.740;22.174;2023-07-13T07:07:00;100251.13;;;26.64;64.08
50349;BME280;36250;48.740;22.174;2023-07-13T07:09:26;100248.69;;;26.90;61.99
50349;BME280;36250;48.740;22.174;2023-07-13T07:11:51;100249.00;;;27.01;62.16
50349;BME280;36250;48.740;22.174;2023-07-13T07:14:16;100244.94;;;27.14;61.75
50349;BME280;36250;48.740;22.174;2023-07-13T07:16:42;100241.81;;;27.31;60.95
50349;BME280;36250;48.740;22.174;2023-07-13T07:19:07;100247.78;;;27.45;59.69
50349;BME280;36250;48.740;22.174;2023-07-13T07:21:33;100237.19;;;27.54;60.32
50349;BME280;36250;48.740;22.174;2023-07-13T07:23:58;100239.09;;;27.50;59.73
50349;BME280;36250;48.740;22.174;2023-07-13T07:26:24;100235.31;;;27.58;59.55
50349;BME280;36250;48.740;22.174;2023-07-13T07:28:50;100232.81;;;27.53;60.09
50349;BME280;36250;48.740;22.174;2023-07-13T07:31:15;100232.44;;;27.39;60.32
50349;BME280;36250;48.740;22.174;2023-07-13T07:33:40;100238.03;;;27.39;60.25
50349;BME280;36250;48.740;22.174;2023-07-13T07:36:05;100226.28;;;27.49;59.91
50349;BME280;36250;48.740;22.174;2023-07-13T07:38:31;100225.22;;;27.38;59.87
50349;BME280;36250;48.740;22.174;2023-07-13T07:40:56;100208.44;;;27.38;60.57
50349;BME280;36250;48.740;22.174;2023-07-13T07:43:21;100200.59;;;27.44;60.69
50349;BME280;36250;48.740;22.174;2023-07-13T07:45:46;100189.31;;;27.40;61.25
50349;BME280;36250;48.740;22.174;2023-07-13T07:48:12;100168.91;;;27.55;60.66
50349;BME280;36250;48.740;22.174;2023-07-13T07:50:37;100161.56;;;27.66;60.95
50349;BME280;36250;48.740;22.174;2023-07-13T07:53:03;100147.16;;;27.83;60.54
50349;BME280;36250;48.740;22.174;2023-07-13T07:55:32;100141.28;;;27.88;59.99
50349;BME280;36250;48.740;22.174;2023-07-13T07:57:57;100132.59;;;27.93;60.21
50349;BME280;36250;48.740;22.174;2023-07-13T08:00:22;100121.38;;;28.09;60.18
50349;BME280;36250;48.740;22.174;2023-07-13T08:02:48;100104.63;;;28.13;59.14
50349;BME280;36250;48.740;22.174;2023-07-13T08:05:13;100096.22;;;28.13;59.08
50349;BME280;36250;48.740;22.174;2023-07-13T08:07:38;100079.44;;;28.13;59.06
50349;BME280;36250;48.740;22.174;2023-07-13T08:10:04;100085.47;;;28.15;59.52
50349;BME280;36250;48.740;22.174;2023-07-13T08:12:33;100077.56;;;28.20;59.80
50349;BME280;36250;48.740;22.174;2023-07-13T08:14:58;100075.13;;;28.38;59.02
50349;BME280;36250;48.740;22.174;2023-07-13T08:17:25;100066.59;;;28.31;58.42
50349;BME280;36250;48.740;22.174;2023-07-13T08:19:50;100071.00;;;28.32;59.05
50349;BME280;36250;48.740;22.174;2023-07-13T08:22:16;100067.94;;;28.18;59.08
50349;BME280;36250;48.740;22.174;2023-07-13T08:24:41;100065.38;;;28.09;59.15
50349;BME280;36250;48.740;22.174;2023-07-13T08:27:07;100077.06;;;28.15;58.52
50349;BME280;36250;48.740;22.174;2023-07-13T08:29:33;100083.13;;;28.17;58.35
50349;BME280;36250;48.740;22.174;2023-07-13T08:31:58;100080.75;;;28.19;58.52
50349;BME280;36250;48.740;22.174;2023-07-13T08:34:23;100084.63;;;28.33;58.08
50349;BME280;36250;48.740;22.174;2023-07-13T08:36:48;100089.97;;;28.19;57.86
50349;BME280;36250;48.740;22.174;2023-07-13T08:39:14;100086.13;;;28.08;58.29
50349;BME280;36250;48.740;22.174;2023-07-13T08:41:39;100075.91;;;27.96;59.63
50349;BME280;36250;48.740;22.174;2023-07-13T08:44:04;100070.72;;;27.98;60.40
50349;BME280;36250;48.740;22.174;2023-07-13T08:46:38;100076.09;;;27.88;59.27
50349;BME280;36250;48.740;22.174;2023-07-13T08:49:10;100071.84;;;27.75;60.61
50349;BME280;36250;48.740;22.174;2023-07-13T08:51:57;100062.06;;;27.65;59.61
50349;BME280;36250;48.740;22.174;2023-07-13T08:54:29;100055.22;;;27.44;60.03
50349;BME280;36250;48.740;22.174;2023-07-13T08:56:56;100047.72;;;27.32;60.28
50349;BME280;36250;48.740;22.174;2023-07-13T08:59:24;100055.66;;;27.30;61.99
50349;BME280;36250;48.740;22.174;2023-07-13T09:04:46;100036.38;;;27.25;62.48
50349;BME280;36250;48.740;22.174;2023-07-13T09:10:41;100035.34;;;27.14;62.75
50349;BME280;36250;48.740;22.174;2023-07-13T09:15:30;100033.94;;;26.89;63.82
50349;BME280;36250;48.740;22.174;2023-07-13T09:17:57;100032.91;;;26.78;65.03
50349;BME280;36250;48.740;22.174;2023-07-13T09:20:37;100026.56;;;26.65;64.71
50349;BME280;36250;48.740;22.174;2023-07-13T09:23:05;100033.94;;;26.57;65.59
50349;BME280;36250;48.740;22.174;2023-07-13T09:25:35;100035.47;;;26.55;65.83
50349;BME280;36250;48.740;22.174;2023-07-13T09:28:11;100028.28;;;26.54;65.99
50349;BME280;36250;48.740;22.174;2023-07-13T09:33:07;100048.81;;;26.46;65.84
50349;BME280;36250;48.740;22.174;2023-07-13T09:35:34;100054.03;;;26.47;65.04
50349;BME280;36250;48.740;22.174;2023-07-13T09:43:15;100066.53;;;26.38;65.64
50349;BME280;36250;48.740;22.174;2023-07-13T09:45:41;100070.56;;;26.25;66.33
50349;BME280;36250;48.740;22.174;2023-07-13T09:48:13;100062.41;;;26.04;67.66
50349;BME280;36250;48.740;22.174;2023-07-13T09:50:39;100069.16;;;25.75;69.52
50349;BME280;36250;48.740;22.174;2023-07-13T09:53:04;100069.34;;;25.55;70.87
50349;BME280;36250;48.740;22.174;2023-07-13T09:55:39;100074.97;;;25.30;72.73
50349;BME280;36250;48.740;22.174;2023-07-13T09:58:09;100073.50;;;25.09;74.26
50349;BME280;36250;48.740;22.174;2023-07-13T10:00:35;100078.25;;;24.84;76.13
50349;BME280;36250;48.740;22.174;2023-07-13T10:03:02;100082.16;;;24.59;76.77
50349;BME280;36250;48.740;22.174;2023-07-13T10:05:28;100092.19;;;24.39;77.82
50349;BME280;36250;48.740;22.174;2023-07-13T10:08:01;100101.56;;;24.23;79.67
50349;BME280;36250;48.740;22.174;2023-07-13T10:10:27;100109.56;;;24.03;80.39
50349;BME280;36250;48.740;22.174;2023-07-13T10:12:52;100115.56;;;23.93;80.88
50349;BME280;36250;48.740;22.174;2023-07-13T10:15:22;100130.47;;;23.89;82.09
50349;BME280;36250;48.740;22.174;2023-07-13T10:17:49;100124.50;;;23.78;83.03
50349;BME280;36250;48.740;22.174;2023-07-13T10:20:15;100123.84;;;23.31;88.03
50349;BME280;36250;48.740;22.174;2023-07-13T10:25:25;100068.47;;;23.06;88.40
50349;BME280;36250;48.740;22.174;2023-07-13T10:27:52;100031.63;;;23.17;88.42
50349;BME280;36250;48.740;22.174;2023-07-13T10:30:19;99992.88;;;23.21;88.34
50349;BME280;36250;48.740;22.174;2023-07-13T10:32:48;99992.09;;;23.20;88.01
50349;BME280;36250;48.740;22.174;2023-07-13T10:35:15;100020.38;;;23.14;89.15
50349;BME280;36250;48.740;22.174;2023-07-13T10:37:45;100030.28;;;23.03;90.19
50349;BME280;36250;48.740;22.174;2023-07-13T10:40:17;100033.97;;;22.86;90.26
50349;BME280;36250;48.740;22.174;2023-07-13T10:42:45;100041.47;;;22.85;90.86
50349;BME280;36250;48.740;22.174;2023-07-13T10:45:15;100079.50;;;22.94;89.56
50349;BME280;36250;48.740;22.174;2023-07-13T10:47:42;100089.91;;;22.97;86.61
50349;BME280;36250;48.740;22.174;2023-07-13T10:50:08;100123.69;;;22.99;86.66
50349;BME280;36250;48.740;22.174;2023-07-13T10:52:43;100142.00;;;23.00;89.13
50349;BME280;36250;48.740;22.174;2023-07-13T10:57:55;100145.03;;;23.15;89.02
50349;BME280;36250;48.740;22.174;2023-07-13T11:00:24;100153.78;;;23.26;89.18
50349;BME280;36250;48.740;22.174;2023-07-13T11:02:56;100165.38;;;23.28;87.41
50349;BME280;36250;48.740;22.174;2023-07-13T11:05:30;100158.56;;;23.17;83.79
50349;BME280;36250;48.740;22.174;2023-07-13T11:08:04;100157.38;;;23.26;82.87
50349;BME280;36250;48.740;22.174;2023-07-13T11:15:57;100137.25;;;24.21;81.30
50349;BME280;36250;48.740;22.174;2023-07-13T11:18:23;100127.81;;;24.46;77.91
50349;BME280;36250;48.740;22.174;2023-07-13T11:20:49;100116.47;;;24.63;77.24
50349;BME280;36250;48.740;22.174;2023-07-13T11:25:43;100111.91;;;25.15;75.94
50349;BME280;36250;48.740;22.174;2023-07-13T11:35:31;100114.75;;;26.50;71.08
50349;BME280;36250;48.740;22.174;2023-07-13T11:37:58;100106.38;;;26.97;70.61
50349;BME280;36250;48.740;22.174;2023-07-13T11:40:24;100102.53;;;27.36;68.67
50349;BME280;36250;48.740;22.174;2023-07-13T11:42:52;100095.97;;;27.83;67.17
50349;BME280;36250;48.740;22.174;2023-07-13T11:45:23;100096.66;;;28.15;64.95
50349;BME280;36250;48.740;22.174;2023-07-13T11:47:49;100086.41;;;28.22;62.69
50349;BME280;36250;48.740;22.174;2023-07-13T11:50:22;100088.13;;;28.08;62.21
50349;BME280;36250;48.740;22.174;2023-07-13T11:52:48;100094.44;;;27.85;64.12
50349;BME280;36250;48.740;22.174;2023-07-13T11:55:16;100086.13;;;28.08;64.45
50349;BME280;36250;48.740;22.174;2023-07-13T11:58:00;100076.44;;;28.44;63.23
50349;BME280;36250;48.740;22.174;2023-07-13T12:00:28;100077.38;;;28.74;63.32
50349;BME280;36250;48.740;22.174;2023-07-13T12:02:54;100068.13;;;29.19;61.35
50349;BME280;36250;48.740;22.174;2023-07-13T12:05:20;100070.75;;;29.64;59.25
50349;BME280;36250;48.740;22.174;2023-07-13T12:07:46;100081.06;;;29.83;59.11
50349;BME280;36250;48.740;22.174;2023-07-13T12:10:19;100079.94;;;29.61;57.79
50349;BME280;36250;48.740;22.174;2023-07-13T12:12:46;100076.75;;;29.63;58.37
50349;BME280;36250;48.740;22.174;2023-07-13T12:15:12;100073.59;;;29.38;58.60
50349;BME280;36250;48.740;22.174;2023-07-13T12:17:37;100063.44;;;29.26;59.90
50349;BME280;36250;48.740;22.174;2023-07-13T12:20:04;100063.00;;;29.24;57.98
50349;BME280;36250;48.740;22.174;2023-07-13T12:22:38;100068.56;;;28.98;60.48
50349;BME280;36250;48.740;22.174;2023-07-13T12:25:03;100066.53;;;28.50;60.86
50349;BME280;36250;48.740;22.174;2023-07-13T12:27:30;100059.91;;;28.16;62.10
50349;BME280;36250;48.740;22.174;2023-07-13T12:29:59;100056.03;;;28.02;62.26
50349;BME280;36250;48.740;22.174;2023-07-13T12:32:25;100049.63;;;28.01;63.27
50349;BME280;36250;48.740;22.174;2023-07-13T12:35:01;100054.03;;;28.44;62.84
50349;BME280;36250;48.740;22.174;2023-07-13T12:37:33;100051.31;;;28.70;61.75
50349;BME280;36250;48.740;22.174;2023-07-13T12:39:59;100060.63;;;28.55;61.72
50349;BME280;36250;48.740;22.174;2023-07-13T12:42:28;100042.84;;;28.44;61.77
50349;BME280;36250;48.740;22.174;2023-07-13T12:47:22;100041.13;;;28.17;63.30
50349;BME280;36250;48.740;22.174;2023-07-13T12:49:48;100034.09;;;28.04;63.36
50349;BME280;36250;48.740;22.174;2023-07-13T12:52:16;100038.84;;;27.84;63.68
50349;BME280;36250;48.740;22.174;2023-07-13T12:54:41;100038.63;;;27.54;64.28
50349;BME280;36250;48.740;22.174;2023-07-13T12:57:08;100036.09;;;27.30;65.20
50349;BME280;36250;48.740;22.174;2023-07-13T12:59:39;100031.72;;;27.13;65.51
50349;BME280;36250;48.740;22.174;2023-07-13T13:02:18;100031.34;;;27.15;65.61
50349;BME280;36250;48.740;22.174;2023-07-13T13:04:47;100018.47;;;27.10;66.71
50349;BME280;36250;48.740;22.174;2023-07-13T13:07:13;100013.72;;;27.11;66.61
50349;BME280;36250;48.740;22.174;2023-07-13T13:09:38;100008.41;;;27.06;66.53
50349;BME280;36250;48.740;22.174;2023-07-13T13:12:03;100009.19;;;26.87;66.48
50349;BME280;36250;48.740;22.174;2023-07-13T13:14:30;100013.69;;;26.76;66.63
50349;BME280;36250;48.740;22.174;2023-07-13T13:16:55;100001.06;;;26.51;66.65
50349;BME280;36250;48.740;22.174;2023-07-13T13:19:26;99998.00;;;26.25;67.42